Time;durP1;ratioP1;P1;durP2;ratioP2;P2;SDS_P1;SDS_P2;PMS_P1;PMS_P2;Temp;Humidity;BMP_temperature;BMP_pressure;BME280_temperature;BME280_humidity;BME280_pressure;Samples;Min_cycle;Max_cycle;Signal;HPM_P1;HPM_P2
2021/08/31 00:01:37;;;;;;;6.63;5.27;;;11.60;99.90;;;;;;4123261;28;20030;-64
2021/08/31 00:03:38;;;;;;;9.13;4.03;;;11.60;99.90;;;;;;4122890;28;20042;-63
2021/08/31 00:05:39;;;;;;;7.73;4.70;;;11.50;99.90;;;;;;4123616;28;20073;-64
2021/08/31 00:07:43;;;;;;;7.83;4.73;;;11.50;99.90;;;;;;4123112;28;20521;-63
2021/08/31 00:09:44;;;;;;;4.33;3.73;;;11.50;99.90;;;;;;4121265;28;20089;-63
2021/08/31 00:11:45;;;;;;;6.87;4.90;;;11.50;99.90;;;;;;4123057;28;20143;-63
2021/08/31 00:13:47;;;;;;;9.47;5.10;;;11.50;99.90;;;;;;4123316;28;20066;-63
2021/08/31 00:15:48;;;;;;;6.20;4.13;;;11.40;99.90;;;;;;4123246;28;20081;-63
2021/08/31 00:17:49;;;;;;;5.40;4.70;;;11.40;99.90;;;;;;4122085;28;20116;-63
2021/08/31 00:19:50;;;;;;;6.70;4.13;;;11.30;99.90;;;;;;4123595;28;20049;-63
2021/08/31 00:21:51;;;;;;;8.37;4.40;;;11.40;99.90;;;;;;4123103;28;20434;-62
2021/08/31 00:23:52;;;;;;;5.93;4.17;;;11.30;99.90;;;;;;4122797;28;20109;-63
2021/08/31 00:25:53;;;;;;;8.73;4.83;;;11.30;99.90;;;;;;4123289;28;20026;-63
2021/08/31 00:27:54;;;;;;;5.30;4.20;;;11.20;99.90;;;;;;4122917;28;20104;-63
2021/08/31 00:29:56;;;;;;;5.43;4.30;;;11.20;99.90;;;;;;4123044;28;20082;-63
2021/08/31 00:31:57;;;;;;;5.73;4.57;;;11.20;99.90;;;;;;4123551;28;20031;-62
2021/08/31 00:33:58;;;;;;;5.23;3.93;;;11.20;99.90;;;;;;4122964;28;20095;-63
2021/08/31 00:36:03;;;;;;;9.83;5.33;;;11.20;99.90;;;;;;4123430;28;20069;-63
2021/08/31 00:38:04;;;;;;;5.53;4.83;;;11.20;99.90;;;;;;4122823;28;20050;-63
2021/08/31 00:40:07;;;;;;;7.10;4.63;;;11.20;99.90;;;;;;4123308;28;20039;-63
2021/08/31 00:42:08;;;;;;;5.67;4.23;;;11.20;99.90;;;;;;4122903;28;20504;-63
2021/08/31 00:44:25;;;;;;;7.73;4.07;;;11.10;99.90;;;;;;4122919;28;20059;-63
2021/08/31 00:46:26;;;;;;;8.53;4.57;;;11.10;99.90;;;;;;4123088;28;20446;-63
2021/08/31 00:48:27;;;;;;;5.03;4.20;;;11.10;99.90;;;;;;4123448;28;20085;-63
2021/08/31 00:50:28;;;;;;;5.53;4.40;;;11.10;99.90;;;;;;4123342;28;20096;-63
2021/08/31 00:52:29;;;;;;;4.90;4.13;;;11.10;99.90;;;;;;4123223;28;20101;-64
2021/08/31 00:54:31;;;;;;;6.03;4.53;;;11.10;99.90;;;;;;4121627;28;20043;-64
2021/08/31 00:56:32;;;;;;;6.27;4.10;;;11.10;99.90;;;;;;4123242;28;20073;-63
2021/08/31 00:58:33;;;;;;;4.73;4.23;;;11.10;99.90;;;;;;4123347;28;20034;-63
2021/08/31 01:00:34;;;;;;;5.63;4.60;;;11.10;99.90;;;;;;4122531;28;20569;-63
2021/08/31 01:02:36;;;;;;;6.27;4.13;;;11.10;99.90;;;;;;4122680;28;20030;-63
2021/08/31 01:04:37;;;;;;;6.47;4.27;;;11.10;99.90;;;;;;4123054;28;20030;-63
2021/08/31 01:06:39;;;;;;;7.00;4.03;;;11.00;99.90;;;;;;4122805;28;20440;-64
2021/08/31 01:08:40;;;;;;;6.07;4.50;;;11.00;99.90;;;;;;4122514;28;20457;-63
2021/08/31 01:10:42;;;;;;;6.20;4.50;;;11.00;99.90;;;;;;4123439;28;20475;-63
2021/08/31 01:12:43;;;;;;;6.27;4.90;;;11.00;99.90;;;;;;4122864;28;20064;-63
2021/08/31 01:14:46;;;;;;;6.77;4.37;;;11.10;99.90;;;;;;4123280;28;20534;-63
2021/08/31 01:16:49;;;;;;;5.00;4.13;;;11.10;99.90;;;;;;4122438;28;20109;-63
2021/08/31 01:18:50;;;;;;;8.00;4.40;;;11.10;99.90;;;;;;4123150;28;20038;-63
2021/08/31 01:20:53;;;;;;;8.33;4.47;;;11.20;99.90;;;;;;4123437;28;20475;-63
2021/08/31 01:22:54;;;;;;;5.97;4.17;;;11.10;99.90;;;;;;4125303;28;20058;-63
2021/08/31 01:24:59;;;;;;;6.97;4.27;;;11.20;99.90;;;;;;4125793;28;20041;-63
2021/08/31 01:27:01;;;;;;;6.70;3.87;;;11.20;99.90;;;;;;4125683;28;20026;-63
2021/08/31 01:29:04;;;;;;;5.83;4.27;;;11.20;99.90;;;;;;4125897;28;20162;-63
2021/08/31 01:31:05;;;;;;;5.20;4.40;;;11.20;99.90;;;;;;4125726;28;20038;-63
2021/08/31 01:33:08;;;;;;;4.40;4.00;;;11.30;99.90;;;;;;4125612;28;20030;-63
2021/08/31 01:35:11;;;;;;;5.13;4.00;;;11.30;99.90;;;;;;4125012;28;20034;-63
2021/08/31 01:37:13;;;;;;;5.10;3.60;;;11.30;99.90;;;;;;4125340;28;20406;-62
2021/08/31 01:39:15;;;;;;;4.13;3.63;;;11.40;99.90;;;;;;4125403;28;20046;-63
2021/08/31 01:41:16;;;;;;;4.00;3.67;;;11.40;99.90;;;;;;4125270;28;20069;-63
2021/08/31 01:43:25;;;;;;;3.80;3.40;;;11.40;99.90;;;;;;4125150;28;20080;-63
2021/08/31 01:45:26;;;;;;;4.67;4.10;;;11.40;99.90;;;;;;4125727;28;20092;-63
2021/08/31 01:47:28;;;;;;;6.60;4.57;;;11.30;99.90;;;;;;4125250;28;20030;-63
2021/08/31 01:49:30;;;;;;;7.57;3.87;;;11.30;99.90;;;;;;4125457;28;20039;-64
2021/08/31 01:51:31;;;;;;;4.37;3.40;;;11.30;99.90;;;;;;4125089;28;20065;-63
2021/08/31 01:53:33;;;;;;;5.47;3.47;;;11.30;99.90;;;;;;4125591;28;20030;-63
2021/08/31 01:55:34;;;;;;;10.07;3.63;;;11.20;99.90;;;;;;4125095;28;20023;-63
2021/08/31 01:57:36;;;;;;;4.10;3.40;;;11.20;99.90;;;;;;4125746;28;20470;-63
2021/08/31 01:59:37;;;;;;;4.87;4.23;;;11.20;99.90;;;;;;4125351;28;20148;-62
2021/08/31 02:01:38;;;;;;;8.33;3.80;;;11.20;99.90;;;;;;4124770;28;20097;-63
2021/08/31 02:03:39;;;;;;;4.80;3.67;;;11.20;99.90;;;;;;4124745;28;20054;-63
2021/08/31 02:05:40;;;;;;;4.13;3.40;;;11.20;99.90;;;;;;4124814;28;20486;-63
2021/08/31 02:07:41;;;;;;;5.63;4.10;;;11.20;99.90;;;;;;4124976;28;20026;-63
2021/08/31 02:09:43;;;;;;;11.90;4.17;;;11.20;99.90;;;;;;4124706;28;20565;-64
2021/08/31 02:11:44;;;;;;;6.27;3.97;;;11.20;99.90;;;;;;4125065;28;20035;-63
2021/08/31 02:13:45;;;;;;;6.50;3.93;;;11.10;99.90;;;;;;4124844;28;20156;-63
2021/08/31 02:15:46;;;;;;;5.80;3.70;;;11.10;99.90;;;;;;4125193;28;20046;-62
2021/08/31 02:17:47;;;;;;;6.27;3.60;;;11.00;99.90;;;;;;4124384;28;20431;-62
2021/08/31 02:19:48;;;;;;;4.73;3.77;;;11.00;99.90;;;;;;4125150;28;20052;-63
2021/08/31 02:21:49;;;;;;;4.93;3.90;;;11.00;99.90;;;;;;4124303;28;20038;-63
2021/08/31 02:23:50;;;;;;;8.10;3.90;;;11.00;99.90;;;;;;4124908;28;20050;-64
2021/08/31 02:25:52;;;;;;;11.23;3.80;;;11.00;99.90;;;;;;4124374;28;20034;-63
2021/08/31 02:27:53;;;;;;;6.53;3.87;;;11.00;99.90;;;;;;4125150;28;20034;-63
2021/08/31 02:29:54;;;;;;;5.40;3.70;;;11.00;99.90;;;;;;4125322;28;20046;-63
2021/08/31 02:31:55;;;;;;;4.87;3.47;;;11.00;99.90;;;;;;4124685;28;20093;-62
2021/08/31 02:33:56;;;;;;;5.10;3.67;;;10.90;99.90;;;;;;4124078;28;20895;-63
2021/08/31 02:35:57;;;;;;;3.73;3.37;;;10.90;99.90;;;;;;4124914;28;20042;-63
2021/08/31 02:37:59;;;;;;;5.03;3.10;;;11.00;99.90;;;;;;4124088;28;20030;-63
2021/08/31 02:40:00;;;;;;;5.43;3.23;;;11.00;99.90;;;;;;4124621;28;20034;-63
2021/08/31 02:42:01;;;;;;;4.37;3.00;;;11.00;99.90;;;;;;4124336;28;20042;-63
2021/08/31 02:44:03;;;;;;;5.77;3.70;;;11.10;99.90;;;;;;4124405;28;20046;-63
2021/08/31 02:46:04;;;;;;;4.00;3.37;;;11.10;99.90;;;;;;4124862;28;20054;-63
2021/08/31 02:48:05;;;;;;;4.17;3.17;;;11.10;99.90;;;;;;4123682;28;20077;-63
2021/08/31 02:50:07;;;;;;;4.67;2.93;;;11.10;99.90;;;;;;4122916;28;20035;-63
2021/08/31 02:52:08;;;;;;;6.83;3.57;;;11.10;99.90;;;;;;4124142;28;20069;-63
2021/08/31 02:54:09;;;;;;;4.10;3.67;;;11.10;99.90;;;;;;4124255;28;20018;-64
2021/08/31 02:56:10;;;;;;;3.87;3.40;;;11.10;99.90;;;;;;4123540;28;20089;-62
2021/08/31 02:58:12;;;;;;;4.73;3.63;;;11.10;99.90;;;;;;4124363;28;20069;-64
2021/08/31 03:00:18;;;;;;;5.07;3.37;;;11.10;99.90;;;;;;4124565;28;20447;-65
2021/08/31 03:02:19;;;;;;;6.67;3.73;;;11.00;99.90;;;;;;4123915;28;20549;-63
2021/08/31 03:04:20;;;;;;;3.83;3.37;;;11.00;99.90;;;;;;4124476;28;20102;-63
2021/08/31 03:06:22;;;;;;;7.70;3.77;;;11.00;99.90;;;;;;4124645;28;20022;-62
2021/08/31 03:08:24;;;;;;;7.80;3.50;;;11.00;99.90;;;;;;4124117;28;21365;-64
2021/08/31 03:10:25;;;;;;;9.37;4.00;;;11.00;99.90;;;;;;4124468;28;20030;-62
2021/08/31 03:12:27;;;;;;;7.93;4.67;;;10.90;99.90;;;;;;4123673;28;20042;-63
2021/08/31 03:14:28;;;;;;;5.03;3.60;;;10.90;99.90;;;;;;4123943;28;20030;-63
2021/08/31 03:16:29;;;;;;;4.00;3.60;;;10.90;99.90;;;;;;4124152;28;20030;-63
2021/08/31 03:18:30;;;;;;;8.97;5.60;;;10.90;99.90;;;;;;4123896;28;20054;-63
2021/08/31 03:20:32;;;;;;;14.53;5.40;;;10.80;99.90;;;;;;4123723;28;20038;-63
2021/08/31 03:22:33;;;;;;;10.97;5.03;;;10.70;99.90;;;;;;4123851;28;20105;-63
2021/08/31 03:24:34;;;;;;;5.27;4.47;;;10.70;99.90;;;;;;4123941;28;20038;-63
2021/08/31 03:26:35;;;;;;;9.80;4.90;;;10.60;99.90;;;;;;4123354;28;20039;-63
2021/08/31 03:28:37;;;;;;;8.73;4.70;;;10.50;99.90;;;;;;4123663;28;20079;-64
2021/08/31 03:30:38;;;;;;;10.23;4.43;;;10.40;99.90;;;;;;4123197;28;20042;-63
2021/08/31 03:32:41;;;;;;;12.43;5.43;;;10.40;99.90;;;;;;4123337;28;20568;-63
2021/08/31 03:34:42;;;;;;;11.90;4.87;;;10.40;99.90;;;;;;4123532;28;20069;-64
2021/08/31 03:36:44;;;;;;;5.37;4.70;;;10.40;99.90;;;;;;4123434;28;20034;-63
2021/08/31 03:38:45;;;;;;;10.23;4.23;;;10.40;99.90;;;;;;4123464;28;20117;-63
2021/08/31 03:40:46;;;;;;;6.80;4.70;;;10.30;99.90;;;;;;4123247;28;20097;-63
2021/08/31 03:42:48;;;;;;;6.63;5.20;;;10.30;99.90;;;;;;4123675;28;20042;-63
2021/08/31 03:44:49;;;;;;;7.80;4.97;;;10.20;99.90;;;;;;4122954;28;20030;-63
2021/08/31 03:46:50;;;;;;;7.33;5.10;;;10.30;99.90;;;;;;4123171;28;20038;-63
2021/08/31 03:48:51;;;;;;;12.60;5.40;;;10.30;99.90;;;;;;4123395;28;20030;-63
2021/08/31 03:50:52;;;;;;;12.47;5.77;;;10.30;99.90;;;;;;4123446;28;20085;-63
2021/08/31 03:52:53;;;;;;;9.33;5.93;;;10.30;99.90;;;;;;4123150;28;20851;-63
2021/08/31 03:54:54;;;;;;;13.40;5.60;;;10.40;99.90;;;;;;4123392;28;20088;-63
2021/08/31 03:56:55;;;;;;;20.80;9.00;;;10.40;99.90;;;;;;4123263;28;21035;-63
2021/08/31 03:58:56;;;;;;;9.43;5.70;;;10.40;99.90;;;;;;4123689;28;20046;-62
2021/08/31 04:00:58;;;;;;;8.37;4.97;;;10.40;99.90;;;;;;4122461;28;20043;-63
2021/08/31 04:02:59;;;;;;;9.90;5.50;;;10.50;99.90;;;;;;4123228;28;20068;-63
2021/08/31 04:05:00;;;;;;;8.97;5.20;;;10.50;99.90;;;;;;4123226;28;20494;-63
2021/08/31 04:07:01;;;;;;;11.00;5.47;;;10.70;99.90;;;;;;4123247;28;20093;-62
2021/08/31 04:09:02;;;;;;;7.87;5.27;;;11.00;99.90;;;;;;4123508;28;20031;-65
2021/08/31 04:11:03;;;;;;;8.93;5.47;;;11.20;99.90;;;;;;4123109;28;20545;-62
2021/08/31 04:13:07;;;;;;;10.17;5.37;;;11.40;99.90;;;;;;4122476;28;20039;-66
2021/08/31 04:15:08;;;;;;;11.53;5.73;;;11.40;99.90;;;;;;4122650;28;20042;-60
2021/08/31 04:17:10;;;;;;;8.60;5.37;;;11.40;99.90;;;;;;4122728;28;20043;-62
2021/08/31 04:19:11;;;;;;;8.93;5.73;;;11.40;99.90;;;;;;4122395;28;20069;-63
2021/08/31 04:21:17;;;;;;;10.13;6.33;;;11.50;99.90;;;;;;4122563;28;20461;-67
2021/08/31 04:23:18;;;;;;;28.33;8.30;;;11.50;99.90;;;;;;4114507;28;20636;-64
2021/08/31 04:25:19;;;;;;;9.50;5.60;;;11.40;99.90;;;;;;4118179;28;20101;-64
2021/08/31 04:27:20;;;;;;;13.03;5.17;;;11.30;99.90;;;;;;4119376;28;20030;-67
2021/08/31 04:29:21;;;;;;;10.63;4.87;;;11.30;99.90;;;;;;4119965;28;20088;-64
2021/08/31 04:31:23;;;;;;;10.03;4.53;;;11.40;99.90;;;;;;4120312;28;20070;-63
2021/08/31 04:33:24;;;;;;;8.00;4.30;;;11.50;99.90;;;;;;4120896;28;20031;-63
2021/08/31 04:35:25;;;;;;;6.73;4.00;;;11.40;99.90;;;;;;4120749;28;20034;-65
2021/08/31 04:37:26;;;;;;;5.33;4.13;;;11.30;99.90;;;;;;4120991;28;20100;-65
2021/08/31 04:39:28;;;;;;;5.97;3.67;;;11.30;99.90;;;;;;4121341;28;20509;-65
2021/08/31 04:41:29;;;;;;;4.80;3.87;;;11.50;99.90;;;;;;4120749;28;20030;-65
2021/08/31 04:43:30;;;;;;;9.57;3.73;;;11.90;99.90;;;;;;4121380;28;20093;-64
2021/08/31 04:45:31;;;;;;;4.87;3.77;;;12.10;99.90;;;;;;4121058;28;20171;-65
2021/08/31 04:47:32;;;;;;;5.13;4.50;;;12.10;99.90;;;;;;4121435;28;20109;-64
2021/08/31 04:49:34;;;;;;;10.40;4.83;;;12.20;99.90;;;;;;4122769;28;20050;-64
2021/08/31 04:51:35;;;;;;;7.77;5.00;;;12.50;99.90;;;;;;4128767;28;20038;-68
2021/08/31 04:53:37;;;;;;;21.93;8.33;;;12.30;99.90;;;;;;4121684;28;20046;-63
2021/08/31 04:55:38;;;;;;;14.40;7.30;;;12.00;99.90;;;;;;4119850;28;20038;-63
2021/08/31 04:57:39;;;;;;;15.73;7.13;;;11.90;99.90;;;;;;4123571;28;20042;-63
2021/08/31 04:59:40;;;;;;;13.20;7.63;;;11.90;99.90;;;;;;4126181;28;20077;-65
2021/08/31 05:01:42;;;;;;;12.67;7.63;;;12.40;99.90;;;;;;4125696;28;20042;-62
2021/08/31 05:03:43;;;;;;;13.13;6.63;;;12.60;99.90;;;;;;4125754;28;20031;-65
2021/08/31 05:05:44;;;;;;;12.33;7.07;;;12.80;99.90;;;;;;4125591;28;20042;-67
2021/08/31 05:07:45;;;;;;;10.93;6.60;;;12.90;99.90;;;;;;4125019;28;20476;-62
2021/08/31 05:09:46;;;;;;;11.80;6.27;;;13.40;99.90;;;;;;4124899;28;20097;-65
2021/08/31 05:11:48;;;;;;;18.50;6.83;;;13.50;99.90;;;;;;4125665;28;20046;-63
2021/08/31 05:13:49;;;;;;;13.37;6.30;;;13.40;99.90;;;;;;4125707;28;20034;-63
2021/08/31 05:15:50;;;;;;;17.30;6.37;;;13.40;99.90;;;;;;4125352;28;20088;-63
2021/08/31 05:17:51;;;;;;;10.63;7.20;;;13.20;99.90;;;;;;4124822;28;20445;-63
2021/08/31 05:19:52;;;;;;;9.40;6.37;;;13.00;99.90;;;;;;4125356;28;20086;-64
2021/08/31 05:21:54;;;;;;;16.57;7.17;;;12.80;99.90;;;;;;4125485;28;20506;-63
2021/08/31 05:23:56;;;;;;;10.13;6.60;;;12.80;99.90;;;;;;4125045;28;20127;-65
2021/08/31 05:25:58;;;;;;;12.93;6.47;;;12.80;99.90;;;;;;4125874;28;20054;-63
2021/08/31 05:27:59;;;;;;;7.87;6.10;;;12.80;99.90;;;;;;4125525;28;20030;-64
2021/08/31 05:30:00;;;;;;;11.40;7.43;;;12.80;99.90;;;;;;4125760;28;20574;-65
2021/08/31 05:32:01;;;;;;;18.80;8.60;;;12.80;99.90;;;;;;4124833;28;20081;-63
2021/08/31 05:34:02;;;;;;;28.93;16.60;;;12.60;99.90;;;;;;4124297;28;20097;-61
2021/08/31 05:36:04;;;;;;;18.90;12.00;;;12.50;99.90;;;;;;4121211;28;20804;-63
2021/08/31 05:38:05;;;;;;;21.57;12.67;;;12.60;99.90;;;;;;4120384;28;20034;-63
2021/08/31 05:40:07;;;;;;;20.63;13.47;;;12.90;99.90;;;;;;4125057;28;20050;-63
2021/08/31 05:42:10;;;;;;;17.00;13.10;;;13.20;99.90;;;;;;4124819;28;20039;-63
2021/08/31 05:44:11;;;;;;;17.47;12.13;;;13.20;99.90;;;;;;4125135;28;20027;-63
2021/08/31 05:46:12;;;;;;;17.07;10.90;;;13.20;99.90;;;;;;4122819;28;20084;-63
2021/08/31 05:48:13;;;;;;;13.87;10.03;;;13.20;99.90;;;;;;4124138;28;20027;-62
2021/08/31 05:50:15;;;;;;;15.83;8.43;;;13.80;99.90;;;;;;4125375;28;20042;-61
2021/08/31 05:52:16;;;;;;;17.00;8.13;;;14.20;99.90;;;;;;4121671;28;20842;-62
2021/08/31 05:54:17;;;;;;;17.27;8.00;;;14.30;99.90;;;;;;4122569;28;20462;-64
2021/08/31 05:56:18;;;;;;;12.50;8.90;;;14.40;99.90;;;;;;4125664;28;20057;-61
2021/08/31 05:58:19;;;;;;;13.93;8.67;;;14.40;99.90;;;;;;4124171;28;20080;-61
2021/08/31 06:00:20;;;;;;;13.27;7.50;;;14.20;99.90;;;;;;4125508;28;20054;-60
2021/08/31 06:02:21;;;;;;;17.27;9.57;;;13.90;99.90;;;;;;4124489;28;20506;-62
2021/08/31 06:04:25;;;;;;;18.20;9.33;;;13.50;99.90;;;;;;4125305;28;20027;-61
2021/08/31 06:06:26;;;;;;;17.70;9.17;;;13.30;99.90;;;;;;4123907;28;20082;-65
2021/08/31 06:08:31;;;;;;;18.50;8.97;;;13.20;99.90;;;;;;4125047;28;20026;-62
2021/08/31 06:10:32;;;;;;;14.47;9.97;;;13.10;99.90;;;;;;4123579;28;20042;-62
2021/08/31 06:12:34;;;;;;;17.17;9.60;;;13.00;99.90;;;;;;4125282;28;20510;-61
2021/08/31 06:14:35;;;;;;;21.87;10.53;;;13.00;99.90;;;;;;4124478;28;20081;-61
2021/08/31 06:16:36;;;;;;;20.00;9.73;;;13.00;99.90;;;;;;4124425;28;20368;-63
2021/08/31 06:18:37;;;;;;;14.90;9.43;;;13.00;99.90;;;;;;4124337;28;20030;-64
2021/08/31 06:20:38;;;;;;;17.77;9.33;;;13.00;99.90;;;;;;4124381;28;20087;-63
2021/08/31 06:22:39;;;;;;;13.53;8.63;;;13.10;99.90;;;;;;4124986;28;20152;-64
2021/08/31 06:24:41;;;;;;;20.57;8.50;;;13.10;99.90;;;;;;4124800;28;20450;-62
2021/08/31 06:26:42;;;;;;;10.67;7.93;;;13.10;99.90;;;;;;4124714;28;20152;-62
2021/08/31 06:28:43;;;;;;;9.00;7.40;;;13.10;99.90;;;;;;4124238;28;20034;-60
2021/08/31 06:30:44;;;;;;;10.87;7.53;;;13.20;99.90;;;;;;4125148;28;20510;-62
2021/08/31 06:32:45;;;;;;;11.30;7.17;;;13.30;99.90;;;;;;4124094;28;20100;-62
2021/08/31 06:34:46;;;;;;;20.07;8.63;;;13.50;99.90;;;;;;4123408;28;20054;-63
2021/08/31 06:36:47;;;;;;;21.83;9.37;;;13.50;99.90;;;;;;4123627;28;20522;-62
2021/08/31 06:38:49;;;;;;;16.43;9.00;;;13.60;99.90;;;;;;4123510;28;20557;-62
2021/08/31 06:40:50;;;;;;;16.50;8.30;;;13.60;99.90;;;;;;4123965;28;20851;-62
2021/08/31 06:42:52;;;;;;;15.00;8.93;;;13.60;99.90;;;;;;4119607;28;20034;-63
2021/08/31 06:44:53;;;;;;;17.07;9.43;;;13.60;99.90;;;;;;4124049;28;20498;-62
2021/08/31 06:46:54;;;;;;;12.53;9.30;;;13.60;99.90;;;;;;4121339;28;20092;-63
2021/08/31 06:48:55;;;;;;;15.50;8.53;;;13.70;99.90;;;;;;4123959;28;20086;-63
2021/08/31 06:50:57;;;;;;;12.97;8.17;;;13.70;99.90;;;;;;4124504;28;20053;-63
2021/08/31 06:52:58;;;;;;;19.03;8.47;;;13.70;99.90;;;;;;4124463;28;20042;-62
2021/08/31 06:54:59;;;;;;;20.93;8.83;;;13.70;99.90;;;;;;4124203;28;20093;-63
2021/08/31 06:57:00;;;;;;;18.10;10.37;;;13.70;99.90;;;;;;4124395;28;20088;-63
2021/08/31 06:59:01;;;;;;;15.20;9.27;;;13.80;99.90;;;;;;4124088;28;20073;-63
2021/08/31 07:01:02;;;;;;;16.43;8.87;;;13.90;99.90;;;;;;4125000;28;20583;-62
2021/08/31 07:03:04;;;;;;;17.63;9.43;;;13.90;99.90;;;;;;4123498;28;20561;-63
2021/08/31 07:05:06;;;;;;;13.23;9.13;;;13.90;99.90;;;;;;4124332;28;20450;-63
2021/08/31 07:07:07;;;;;;;14.33;9.33;;;14.00;99.90;;;;;;4123782;28;20092;-63
2021/08/31 07:09:08;;;;;;;17.03;9.17;;;14.10;99.90;;;;;;4124385;28;20034;-63
2021/08/31 07:11:09;;;;;;;10.53;8.67;;;14.20;99.90;;;;;;4123944;28;20026;-63
2021/08/31 07:13:10;;;;;;;15.27;9.33;;;14.40;99.90;;;;;;4124216;28;20030;-62
2021/08/31 07:15:12;;;;;;;15.37;8.70;;;14.60;99.90;;;;;;4124364;28;20026;-63
2021/08/31 07:17:13;;;;;;;12.27;7.27;;;14.70;99.90;;;;;;4121521;28;20034;-62
2021/08/31 07:19:15;;;;;;;13.37;6.77;;;14.90;99.90;;;;;;4122784;28;20065;-63
2021/08/31 07:21:16;;;;;;;9.57;7.30;;;15.00;99.90;;;;;;4123584;28;20026;-62
2021/08/31 07:23:17;;;;;;;11.63;6.57;;;15.10;99.90;;;;;;4124045;28;20058;-63
2021/08/31 07:25:18;;;;;;;9.10;6.45;;;15.20;99.90;;;;;;4124223;28;20030;-63
2021/08/31 07:27:19;;;;;;;15.38;6.13;;;15.30;99.90;;;;;;4123610;28;20026;-63
2021/08/31 07:29:20;;;;;;;11.40;5.63;;;15.40;99.90;;;;;;4123338;28;20030;-62
2021/08/31 07:31:21;;;;;;;7.03;5.93;;;15.50;99.90;;;;;;4122970;28;20896;-62
2021/08/31 07:33:22;;;;;;;12.57;5.95;;;15.50;99.90;;;;;;4123064;28;20038;-62
2021/08/31 07:35:24;;;;;;;7.43;6.30;;;15.60;99.90;;;;;;4123212;28;20092;-62
2021/08/31 07:37:25;;;;;;;7.75;6.57;;;15.70;99.90;;;;;;4123255;28;20038;-62
2021/08/31 07:39:26;;;;;;;15.70;6.57;;;15.80;99.90;;;;;;4122794;28;20073;-63
2021/08/31 07:41:27;;;;;;;13.48;6.63;;;15.90;99.90;;;;;;4123322;28;20096;-63
2021/08/31 07:43:29;;;;;;;9.30;5.78;;;16.00;99.90;;;;;;4123508;28;20034;-62
2021/08/31 07:45:30;;;;;;;7.80;4.75;;;16.10;99.90;;;;;;4122753;28;20034;-64
2021/08/31 07:47:31;;;;;;;4.53;4.13;;;16.10;99.90;;;;;;4122595;28;20475;-63
2021/08/31 07:49:34;;;;;;;7.10;4.45;;;16.10;99.90;;;;;;4123007;28;20089;-63
2021/08/31 07:51:35;;;;;;;9.25;5.03;;;16.10;99.90;;;;;;4122889;28;20038;-62
2021/08/31 07:53:37;;;;;;;4.18;3.85;;;16.20;99.90;;;;;;4121848;28;20050;-63
2021/08/31 07:55:38;;;;;;;5.13;4.63;;;16.30;99.90;;;;;;4123469;28;20537;-62
2021/08/31 07:57:40;;;;;;;6.10;3.88;;;16.40;99.90;;;;;;4123420;28;20557;-62
2021/08/31 07:59:42;;;;;;;3.60;3.28;;;16.50;99.90;;;;;;4123098;28;20039;-62
2021/08/31 08:01:43;;;;;;;3.38;2.90;;;16.50;99.90;;;;;;4122657;28;20046;-63
2021/08/31 08:03:45;;;;;;;5.10;3.13;;;16.50;99.90;;;;;;4122895;28;20093;-62
2021/08/31 08:05:46;;;;;;;4.25;2.90;;;16.60;99.90;;;;;;4123100;28;20054;-63
2021/08/31 08:07:47;;;;;;;6.25;3.38;;;16.60;99.90;;;;;;4119695;28;20525;-62
2021/08/31 08:09:48;;;;;;;4.15;2.67;;;16.60;99.90;;;;;;4110995;28;20030;-63
2021/08/31 08:11:49;;;;;;;5.63;3.78;;;16.80;99.90;;;;;;4116598;28;20034;-63
2021/08/31 08:13:50;;;;;;;6.38;3.90;;;16.80;99.90;;;;;;4107395;28;20151;-62
2021/08/31 08:15:52;;;;;;;11.55;4.18;;;16.90;99.90;;;;;;4106518;28;20035;-62
2021/08/31 08:17:53;;;;;;;9.75;4.07;;;17.00;99.90;;;;;;4107041;28;20035;-62
2021/08/31 08:19:54;;;;;;;8.40;4.10;;;17.20;99.90;;;;;;4106863;28;20090;-62
2021/08/31 08:21:55;;;;;;;7.40;4.43;;;17.20;99.90;;;;;;4119352;28;20471;-62
2021/08/31 08:23:56;;;;;;;9.27;5.75;;;17.40;99.90;;;;;;4122800;28;20112;-62
2021/08/31 08:25:58;;;;;;;10.38;5.82;;;17.50;99.90;;;;;;4122489;28;20042;-61
2021/08/31 08:27:59;;;;;;;7.93;5.28;;;17.60;99.90;;;;;;4116371;28;20104;-62
2021/08/31 08:30:00;;;;;;;9.02;4.93;;;18.00;99.90;;;;;;4122897;28;20080;-63
2021/08/31 08:32:01;;;;;;;9.18;4.95;;;18.20;99.90;;;;;;4121238;28;20495;-62
2021/08/31 08:34:02;;;;;;;8.18;5.85;;;18.50;99.90;;;;;;4110075;28;20125;-64
2021/08/31 08:36:05;;;;;;;13.05;6.60;;;18.60;99.90;;;;;;4123304;28;20093;-63
2021/08/31 08:38:07;;;;;;;9.02;5.43;;;18.80;99.90;;;;;;4125951;28;20108;-63
2021/08/31 08:40:09;;;;;;;11.75;4.70;;;18.90;99.90;;;;;;4126131;28;20050;-62
2021/08/31 08:42:12;;;;;;;6.65;4.40;;;18.80;99.90;;;;;;4111260;28;20042;-63
2021/08/31 08:44:13;;;;;;;6.15;3.67;;;18.70;99.90;;;;;;4110089;28;20094;-63
2021/08/31 08:46:15;;;;;;;8.88;4.22;;;18.50;99.90;;;;;;4110311;28;20521;-63
2021/08/31 08:48:25;;;;;;;6.30;4.00;;;18.50;99.90;;;;;;4110340;28;20109;-63
2021/08/31 08:50:28;;;;;;;9.32;3.75;;;18.50;99.90;;;;;;4110017;28;20046;-63
2021/08/31 08:52:29;;;;;;;4.18;3.75;;;18.60;99.90;;;;;;4112373;28;20470;-62
2021/08/31 08:54:30;;;;;;;4.43;3.70;;;18.70;99.90;;;;;;4113464;28;20022;-62
2021/08/31 08:56:32;;;;;;;5.93;4.03;;;18.50;99.90;;;;;;4125369;28;20667;-62
2021/08/31 08:58:33;;;;;;;5.03;3.70;;;18.40;99.90;;;;;;4125393;28;20299;-62
2021/08/31 09:01:13;;;;;;;7.03;3.58;;;18.40;99.90;;;;;;4125412;28;20093;-62
2021/08/31 09:03:20;;;;;;;5.55;4.28;;;18.40;99.90;;;;;;4074605;29;20036;-63
2021/08/31 09:05:32;;;;;;;5.85;3.47;;;18.40;99.90;;;;;;4106029;28;20026;-62
2021/08/31 09:07:38;;;;;;;8.02;3.53;;;18.50;99.90;;;;;;4115675;28;20489;-62
2021/08/31 09:09:39;;;;;;;7.43;4.45;;;18.50;99.90;;;;;;4125369;28;20054;-63
2021/08/31 09:11:46;;;;;;;5.90;4.10;;;18.40;99.90;;;;;;4125203;28;20015;-67
2021/08/31 09:13:49;;;;;;;5.20;3.63;;;18.40;99.90;;;;;;4125527;28;20073;-62
2021/08/31 09:15:50;;;;;;;10.02;4.53;;;18.50;99.90;;;;;;4123891;28;20104;-67
2021/08/31 09:18:04;;;;;;;6.72;4.07;;;18.50;99.90;;;;;;4125171;28;20508;-62
2021/08/31 09:20:15;;;;;;;7.18;4.35;;;18.50;99.90;;;;;;4124971;28;20324;-61
2021/08/31 09:22:22;;;;;;;9.15;5.28;;;18.40;99.90;;;;;;4125577;28;20034;-62
2021/08/31 09:24:23;;;;;;;9.10;4.38;;;18.30;99.90;;;;;;4125697;28;20038;-62
2021/08/31 09:26:51;;;;;;;5.13;4.30;;;18.30;99.90;;;;;;4125075;28;20042;-63
2021/08/31 09:28:54;;;;;;;9.00;4.35;;;18.40;99.90;;;;;;4122298;28;20042;-63
2021/08/31 09:30:55;;;;;;;7.82;4.10;;;18.30;99.90;;;;;;4123203;28;20046;-62
2021/08/31 09:33:12;;;;;;;10.23;4.90;;;18.30;99.90;;;;;;4125130;28;20046;-63
2021/08/31 09:35:16;;;;;;;8.82;4.78;;;18.30;99.90;;;;;;4124645;28;20034;-63
2021/08/31 09:37:35;;;;;;;11.63;5.35;;;18.30;99.90;;;;;;4125493;28;20038;-63
2021/08/31 09:39:36;;;;;;;5.80;4.10;;;18.40;99.90;;;;;;4124879;28;20030;-62
2021/08/31 09:41:39;;;;;;;5.50;3.78;;;18.30;99.90;;;;;;4125270;28;20053;-62
2021/08/31 09:43:49;;;;;;;4.00;3.60;;;18.40;99.90;;;;;;4125681;28;20030;-65
2021/08/31 09:45:51;;;;;;;;;;;18.40;99.90;;;;;;4126204;28;20038;-64
2021/08/31 09:47:53;;;;;;;12.48;4.72;;;18.40;99.90;;;;;;4124447;28;20369;-65
2021/08/31 09:49:55;;;;;;;3.90;3.53;;;18.30;99.90;;;;;;4125181;28;20908;-63
2021/08/31 09:52:16;;;;;;;10.48;3.92;;;18.20;99.90;;;;;;4124673;28;20027;-62
2021/08/31 09:54:23;;;;;;;8.05;3.72;;;18.20;99.90;;;;;;4124975;28;20457;-63
2021/08/31 09:56:28;;;;;;;5.93;3.45;;;18.20;99.90;;;;;;4123143;28;20042;-62
2021/08/31 09:58:34;;;;;;;5.95;3.40;;;18.20;99.90;;;;;;4123749;28;20096;-63
2021/08/31 10:00:37;;;;;;;7.45;3.63;;;18.20;99.90;;;;;;4108694;28;20093;-63
2021/08/31 10:02:40;;;;;;;8.18;3.65;;;18.20;99.90;;;;;;4120392;28;20103;-62
2021/08/31 10:04:41;;;;;;;7.30;3.75;;;18.20;99.90;;;;;;4123292;28;20474;-63
2021/08/31 10:06:42;;;;;;;6.38;3.45;;;18.20;99.90;;;;;;4124793;28;20475;-62
2021/08/31 10:08:43;;;;;;;3.80;3.33;;;18.20;99.90;;;;;;4124694;28;20077;-62
2021/08/31 10:10:48;;;;;;;6.18;3.22;;;18.20;99.90;;;;;;4124102;28;20030;-63
2021/08/31 10:12:52;;;;;;;3.63;2.75;;;18.30;99.90;;;;;;4124594;28;20044;-62
2021/08/31 10:14:56;;;;;;;6.95;3.92;;;18.40;99.90;;;;;;4124380;28;20042;-63
2021/08/31 10:16:58;;;;;;;9.57;4.15;;;18.40;99.90;;;;;;4123770;28;20026;-64
2021/08/31 10:18:59;;;;;;;4.50;3.72;;;18.40;99.90;;;;;;4123918;28;20043;-62
2021/08/31 10:21:14;;;;;;;11.05;4.10;;;18.40;99.90;;;;;;4124472;28;20108;-62
2021/08/31 10:23:18;;;;;;;13.95;4.47;;;18.30;99.90;;;;;;4124110;28;20112;-62
2021/08/31 10:25:25;;;;;;;5.97;3.40;;;18.30;99.90;;;;;;4124793;28;20094;-63
2021/08/31 10:27:37;;;;;;;6.93;5.20;;;18.30;99.90;;;;;;4124161;28;20038;-62
2021/08/31 10:29:38;;;;;;;9.15;6.28;;;18.20;99.90;;;;;;4124342;28;20124;-63
2021/08/31 10:31:41;;;;;;;9.30;5.40;;;18.20;99.90;;;;;;4124773;28;20074;-63
2021/08/31 10:33:42;;;;;;;5.78;4.03;;;18.20;99.90;;;;;;4124063;28;20034;-63